sensor_id;sensor_type;location;lat;lon;timestamp;P1;durP1;ratioP1;P2;durP2;ratioP2
43337;SDS011;28933;52.492;13.434;2022-12-07T00:00:03;13.10;;;8.10;;
43337;SDS011;28933;52.492;13.434;2022-12-07T00:02:30;12.38;;;6.25;;
43337;SDS011;28933;52.492;13.434;2022-12-07T00:04:56;11.77;;;7.75;;
43337;SDS011;28933;52.492;13.434;2022-12-07T00:07:21;13.63;;;6.85;;
43337;SDS011;28933;52.492;13.434;2022-12-07T00:09:47;12.82;;;7.07;;
43337;SDS011;28933;52.492;13.434;2022-12-07T00:12:13;12.25;;;7.28;;
43337;SDS011;28933;52.492;13.434;2022-12-07T00:14:38;11.02;;;7.43;;
43337;SDS011;28933;52.492;13.434;2022-12-07T00:17:04;9.52;;;6.47;;
43337;SDS011;28933;52.492;13.434;2022-12-07T00:19:31;12.20;;;7.38;;
43337;SDS011;28933;52.492;13.434;2022-12-07T00:21:56;11.40;;;7.55;;
43337;SDS011;28933;52.492;13.434;2022-12-07T00:24:22;10.13;;;6.85;;
43337;SDS011;28933;52.492;13.434;2022-12-07T00:26:47;11.45;;;7.20;;
43337;SDS011;28933;52.492;13.434;2022-12-07T00:29:20;8.77;;;6.35;;
43337;SDS011;28933;52.492;13.434;2022-12-07T00:31:47;9.75;;;6.13;;
43337;SDS011;28933;52.492;13.434;2022-12-07T00:34:14;11.00;;;7.20;;
43337;SDS011;28933;52.492;13.434;2022-12-07T00:36:42;10.95;;;6.75;;
43337;SDS011;28933;52.492;13.434;2022-12-07T00:39:08;10.48;;;6.88;;
43337;SDS011;28933;52.492;13.434;2022-12-07T00:41:33;9.77;;;6.65;;
43337;SDS011;28933;52.492;13.434;2022-12-07T00:43:59;9.05;;;5.88;;
43337;SDS011;28933;52.492;13.434;2022-12-07T00:46:25;9.32;;;7.00;;
43337;SDS011;28933;52.492;13.434;2022-12-07T00:48:51;10.48;;;7.53;;
43337;SDS011;28933;52.492;13.434;2022-12-07T00:51:18;9.88;;;6.65;;
43337;SDS011;28933;52.492;13.434;2022-12-07T00:53:46;8.35;;;5.78;;
43337;SDS011;28933;52.492;13.434;2022-12-07T00:56:13;9.25;;;6.53;;
43337;SDS011;28933;52.492;13.434;2022-12-07T00:58:41;9.95;;;6.55;;
43337;SDS011;28933;52.492;13.434;2022-12-07T01:01:07;8.93;;;6.20;;
43337;SDS011;28933;52.492;13.434;2022-12-07T01:03:34;10.43;;;6.75;;
43337;SDS011;28933;52.492;13.434;2022-12-07T01:06:00;12.75;;;6.75;;
43337;SDS011;28933;52.492;13.434;2022-12-07T01:08:27;9.93;;;7.05;;
43337;SDS011;28933;52.492;13.434;2022-12-07T01:11:00;10.00;;;6.60;;
43337;SDS011;28933;52.492;13.434;2022-12-07T01:15:56;7.75;;;5.90;;
43337;SDS011;28933;52.492;13.434;2022-12-07T01:18:26;9.32;;;6.30;;
43337;SDS011;28933;52.492;13.434;2022-12-07T01:21:02;9.70;;;5.50;;
43337;SDS011;28933;52.492;13.434;2022-12-07T01:23:33;10.32;;;6.15;;
43337;SDS011;28933;52.492;13.434;2022-12-07T01:26:01;8.30;;;5.20;;
43337;SDS011;28933;52.492;13.434;2022-12-07T01:28:28;9.40;;;6.05;;
43337;SDS011;28933;52.492;13.434;2022-12-07T01:33:29;9.55;;;6.18;;
43337;SDS011;28933;52.492;13.434;2022-12-07T01:38:28;11.45;;;7.03;;
43337;SDS011;28933;52.492;13.434;2022-12-07T01:40:55;12.60;;;7.72;;
43337;SDS011;28933;52.492;13.434;2022-12-07T01:43:21;11.55;;;7.72;;
43337;SDS011;28933;52.492;13.434;2022-12-07T01:45:49;9.75;;;6.80;;
43337;SDS011;28933;52.492;13.434;2022-12-07T01:48:16;10.60;;;6.65;;
43337;SDS011;28933;52.492;13.434;2022-12-07T01:50:47;9.30;;;6.38;;
43337;SDS011;28933;52.492;13.434;2022-12-07T01:53:15;8.32;;;6.05;;
43337;SDS011;28933;52.492;13.434;2022-12-07T01:55:43;11.68;;;7.95;;
43337;SDS011;28933;52.492;13.434;2022-12-07T01:58:11;8.88;;;5.68;;
43337;SDS011;28933;52.492;13.434;2022-12-07T02:00:38;9.35;;;6.30;;
43337;SDS011;28933;52.492;13.434;2022-12-07T02:03:06;9.48;;;6.35;;
43337;SDS011;28933;52.492;13.434;2022-12-07T02:05:40;10.00;;;5.47;;
43337;SDS011;28933;52.492;13.434;2022-12-07T02:08:09;9.63;;;5.93;;
43337;SDS011;28933;52.492;13.434;2022-12-07T02:10:37;9.88;;;6.13;;
43337;SDS011;28933;52.492;13.434;2022-12-07T02:13:04;9.63;;;5.90;;
43337;SDS011;28933;52.492;13.434;2022-12-07T02:18:09;10.23;;;6.55;;
43337;SDS011;28933;52.492;13.434;2022-12-07T02:20:45;8.50;;;5.57;;
43337;SDS011;28933;52.492;13.434;2022-12-07T02:31:43;7.90;;;5.30;;
43337;SDS011;28933;52.492;13.434;2022-12-07T02:34:41;6.65;;;4.40;;
43337;SDS011;28933;52.492;13.434;2022-12-07T02:40:14;7.20;;;4.90;;
43337;SDS011;28933;52.492;13.434;2022-12-07T02:42:51;8.35;;;5.13;;
43337;SDS011;28933;52.492;13.434;2022-12-07T02:45:45;6.72;;;5.05;;
43337;SDS011;28933;52.492;13.434;2022-12-07T02:48:13;9.63;;;5.05;;
43337;SDS011;28933;52.492;13.434;2022-12-07T02:50:47;7.20;;;4.90;;
43337;SDS011;28933;52.492;13.434;2022-12-07T02:53:31;7.15;;;4.88;;
43337;SDS011;28933;52.492;13.434;2022-12-07T02:56:15;7.03;;;4.85;;
43337;SDS011;28933;52.492;13.434;2022-12-07T03:10:14;7.43;;;5.15;;
43337;SDS011;28933;52.492;13.434;2022-12-07T03:18:29;6.28;;;4.50;;
43337;SDS011;28933;52.492;13.434;2022-12-07T03:20:58;6.43;;;4.82;;
43337;SDS011;28933;52.492;13.434;2022-12-07T03:23:29;8.35;;;5.38;;
43337;SDS011;28933;52.492;13.434;2022-12-07T03:26:00;6.70;;;4.78;;
43337;SDS011;28933;52.492;13.434;2022-12-07T03:28:29;7.22;;;4.88;;
43337;SDS011;28933;52.492;13.434;2022-12-07T03:31:05;7.63;;;5.53;;
43337;SDS011;28933;52.492;13.434;2022-12-07T03:36:31;8.13;;;5.15;;
43337;SDS011;28933;52.492;13.434;2022-12-07T03:39:20;7.93;;;5.28;;
43337;SDS011;28933;52.492;13.434;2022-12-07T03:41:56;7.93;;;5.60;;
43337;SDS011;28933;52.492;13.434;2022-12-07T03:44:26;7.88;;;5.57;;
43337;SDS011;28933;52.492;13.434;2022-12-07T03:47:35;7.45;;;4.78;;
43337;SDS011;28933;52.492;13.434;2022-12-07T03:49:53;7.00;;;4.90;;
43337;SDS011;28933;52.492;13.434;2022-12-07T03:55:32;7.28;;;5.25;;
43337;SDS011;28933;52.492;13.434;2022-12-07T03:58:03;7.32;;;5.22;;
43337;SDS011;28933;52.492;13.434;2022-12-07T04:00:35;9.25;;;5.90;;
43337;SDS011;28933;52.492;13.434;2022-12-07T04:03:02;8.68;;;6.15;;
43337;SDS011;28933;52.492;13.434;2022-12-07T04:05:27;8.02;;;5.72;;
43337;SDS011;28933;52.492;13.434;2022-12-07T04:07:54;8.52;;;5.90;;
43337;SDS011;28933;52.492;13.434;2022-12-07T04:10:19;8.23;;;5.47;;
43337;SDS011;28933;52.492;13.434;2022-12-07T04:12:46;10.13;;;5.68;;
43337;SDS011;28933;52.492;13.434;2022-12-07T04:15:11;8.10;;;5.47;;
43337;SDS011;28933;52.492;13.434;2022-12-07T04:17:37;11.63;;;6.20;;
43337;SDS011;28933;52.492;13.434;2022-12-07T04:20:04;11.35;;;7.05;;
43337;SDS011;28933;52.492;13.434;2022-12-07T04:22:33;9.18;;;6.53;;
43337;SDS011;28933;52.492;13.434;2022-12-07T04:24:59;9.07;;;6.18;;
43337;SDS011;28933;52.492;13.434;2022-12-07T04:27:24;9.68;;;6.35;;
43337;SDS011;28933;52.492;13.434;2022-12-07T04:29:50;9.68;;;6.25;;
43337;SDS011;28933;52.492;13.434;2022-12-07T04:32:15;9.65;;;7.28;;
43337;SDS011;28933;52.492;13.434;2022-12-07T04:34:41;11.65;;;7.43;;
43337;SDS011;28933;52.492;13.434;2022-12-07T04:37:07;10.73;;;7.72;;
43337;SDS011;28933;52.492;13.434;2022-12-07T04:39:33;10.27;;;7.25;;
43337;SDS011;28933;52.492;13.434;2022-12-07T04:41:59;13.27;;;8.77;;
43337;SDS011;28933;52.492;13.434;2022-12-07T04:44:26;11.88;;;7.45;;
43337;SDS011;28933;52.492;13.434;2022-12-07T04:46:52;13.80;;;8.63;;
43337;SDS011;28933;52.492;13.434;2022-12-07T04:49:19;13.35;;;7.70;;
43337;SDS011;28933;52.492;13.434;2022-12-07T04:51:46;14.23;;;9.65;;
43337;SDS011;28933;52.492;13.434;2022-12-07T04:54:12;14.10;;;8.98;;
43337;SDS011;28933;52.492;13.434;2022-12-07T04:56:38;11.77;;;8.50;;
43337;SDS011;28933;52.492;13.434;2022-12-07T04:59:04;13.95;;;8.65;;
43337;SDS011;28933;52.492;13.434;2022-12-07T05:01:30;14.90;;;10.02;;
43337;SDS011;28933;52.492;13.434;2022-12-07T05:03:56;16.38;;;9.82;;
43337;SDS011;28933;52.492;13.434;2022-12-07T05:06:22;13.52;;;9.15;;
43337;SDS011;28933;52.492;13.434;2022-12-07T05:08:48;17.83;;;10.07;;
43337;SDS011;28933;52.492;13.434;2022-12-07T05:11:14;15.80;;;10.05;;
43337;SDS011;28933;52.492;13.434;2022-12-07T05:13:59;14.75;;;9.45;;
43337;SDS011;28933;52.492;13.434;2022-12-07T05:16:25;14.68;;;9.85;;
43337;SDS011;28933;52.492;13.434;2022-12-07T05:18:51;15.30;;;10.57;;
43337;SDS011;28933;52.492;13.434;2022-12-07T05:21:17;16.67;;;10.40;;
43337;SDS011;28933;52.492;13.434;2022-12-07T05:23:42;15.68;;;10.20;;
43337;SDS011;28933;52.492;13.434;2022-12-07T05:26:08;18.30;;;10.77;;
43337;SDS011;28933;52.492;13.434;2022-12-07T05:28:34;17.13;;;11.30;;
43337;SDS011;28933;52.492;13.434;2022-12-07T05:30:59;16.63;;;10.45;;
43337;SDS011;28933;52.492;13.434;2022-12-07T05:33:25;18.98;;;11.73;;
43337;SDS011;28933;52.492;13.434;2022-12-07T05:35:50;16.17;;;10.75;;
43337;SDS011;28933;52.492;13.434;2022-12-07T05:38:16;21.38;;;11.43;;
43337;SDS011;28933;52.492;13.434;2022-12-07T05:40:42;16.75;;;11.45;;
43337;SDS011;28933;52.492;13.434;2022-12-07T05:43:07;16.85;;;10.73;;
43337;SDS011;28933;52.492;13.434;2022-12-07T05:45:33;18.33;;;11.75;;
43337;SDS011;28933;52.492;13.434;2022-12-07T05:47:59;18.90;;;12.10;;
43337;SDS011;28933;52.492;13.434;2022-12-07T05:50:24;20.55;;;12.18;;
43337;SDS011;28933;52.492;13.434;2022-12-07T05:52:50;20.30;;;13.52;;
43337;SDS011;28933;52.492;13.434;2022-12-07T05:55:16;22.90;;;12.88;;
43337;SDS011;28933;52.492;13.434;2022-12-07T05:57:41;19.70;;;12.30;;
43337;SDS011;28933;52.492;13.434;2022-12-07T06:00:27;18.15;;;12.10;;
43337;SDS011;28933;52.492;13.434;2022-12-07T06:02:53;20.33;;;12.77;;
43337;SDS011;28933;52.492;13.434;2022-12-07T06:05:18;20.30;;;12.48;;
43337;SDS011;28933;52.492;13.434;2022-12-07T06:07:44;17.83;;;11.75;;
43337;SDS011;28933;52.492;13.434;2022-12-07T06:10:10;18.02;;;10.70;;
43337;SDS011;28933;52.492;13.434;2022-12-07T06:12:35;21.27;;;12.85;;
43337;SDS011;28933;52.492;13.434;2022-12-07T06:15:03;20.15;;;12.35;;
43337;SDS011;28933;52.492;13.434;2022-12-07T06:17:29;21.70;;;12.73;;
43337;SDS011;28933;52.492;13.434;2022-12-07T06:19:54;21.05;;;12.43;;
43337;SDS011;28933;52.492;13.434;2022-12-07T06:22:20;20.40;;;13.13;;
43337;SDS011;28933;52.492;13.434;2022-12-07T06:24:46;19.98;;;12.73;;
43337;SDS011;28933;52.492;13.434;2022-12-07T06:27:11;21.50;;;12.80;;
43337;SDS011;28933;52.492;13.434;2022-12-07T06:29:37;22.15;;;12.95;;
43337;SDS011;28933;52.492;13.434;2022-12-07T06:32:03;18.20;;;12.43;;
43337;SDS011;28933;52.492;13.434;2022-12-07T06:34:29;22.33;;;13.73;;
43337;SDS011;28933;52.492;13.434;2022-12-07T06:36:55;23.42;;;13.73;;
43337;SDS011;28933;52.492;13.434;2022-12-07T06:39:22;25.48;;;13.77;;
43337;SDS011;28933;52.492;13.434;2022-12-07T06:41:52;20.17;;;12.73;;
43337;SDS011;28933;52.492;13.434;2022-12-07T06:44:19;19.25;;;12.60;;
43337;SDS011;28933;52.492;13.434;2022-12-07T06:46:45;22.27;;;12.57;;
43337;SDS011;28933;52.492;13.434;2022-12-07T06:49:11;19.27;;;12.02;;
43337;SDS011;28933;52.492;13.434;2022-12-07T06:51:37;19.55;;;11.50;;
43337;SDS011;28933;52.492;13.434;2022-12-07T06:54:06;19.63;;;12.85;;
43337;SDS011;28933;52.492;13.434;2022-12-07T06:56:35;18.33;;;11.32;;
43337;SDS011;28933;52.492;13.434;2022-12-07T06:59:01;23.00;;;13.25;;
43337;SDS011;28933;52.492;13.434;2022-12-07T07:01:27;21.10;;;12.75;;
43337;SDS011;28933;52.492;13.434;2022-12-07T07:03:53;20.35;;;13.35;;
43337;SDS011;28933;52.492;13.434;2022-12-07T07:06:19;27.15;;;14.48;;
43337;SDS011;28933;52.492;13.434;2022-12-07T07:08:44;23.17;;;13.55;;
43337;SDS011;28933;52.492;13.434;2022-12-07T07:11:10;26.05;;;13.57;;
43337;SDS011;28933;52.492;13.434;2022-12-07T07:13:36;21.23;;;12.93;;
43337;SDS011;28933;52.492;13.434;2022-12-07T07:16:01;23.55;;;13.30;;
43337;SDS011;28933;52.492;13.434;2022-12-07T07:18:28;19.83;;;11.82;;
43337;SDS011;28933;52.492;13.434;2022-12-07T07:20:54;21.65;;;13.18;;
43337;SDS011;28933;52.492;13.434;2022-12-07T07:23:20;22.65;;;13.57;;
43337;SDS011;28933;52.492;13.434;2022-12-07T07:25:46;20.88;;;13.10;;
43337;SDS011;28933;52.492;13.434;2022-12-07T07:28:12;20.95;;;12.80;;
43337;SDS011;28933;52.492;13.434;2022-12-07T07:30:38;19.50;;;12.27;;
43337;SDS011;28933;52.492;13.434;2022-12-07T07:33:03;19.80;;;12.30;;
43337;SDS011;28933;52.492;13.434;2022-12-07T07:35:30;22.60;;;12.98;;
43337;SDS011;28933;52.492;13.434;2022-12-07T07:37:57;19.67;;;12.35;;
43337;SDS011;28933;52.492;13.434;2022-12-07T07:40:23;20.45;;;12.05;;
43337;SDS011;28933;52.492;13.434;2022-12-07T07:42:50;15.57;;;10.35;;
43337;SDS011;28933;52.492;13.434;2022-12-07T07:45:17;16.92;;;9.55;;
43337;SDS011;28933;52.492;13.434;2022-12-07T07:47:44;17.25;;;9.95;;
43337;SDS011;28933;52.492;13.434;2022-12-07T07:50:09;18.48;;;11.07;;
43337;SDS011;28933;52.492;13.434;2022-12-07T07:52:35;16.20;;;10.20;;
43337;SDS011;28933;52.492;13.434;2022-12-07T07:55:01;18.63;;;11.18;;
43337;SDS011;28933;52.492;13.434;2022-12-07T07:57:27;15.50;;;10.13;;
43337;SDS011;28933;52.492;13.434;2022-12-07T07:59:52;15.68;;;10.10;;
43337;SDS011;28933;52.492;13.434;2022-12-07T08:02:18;17.65;;;9.55;;
43337;SDS011;28933;52.492;13.434;2022-12-07T08:04:45;15.43;;;10.18;;
43337;SDS011;28933;52.492;13.434;2022-12-07T08:07:11;16.63;;;9.90;;
43337;SDS011;28933;52.492;13.434;2022-12-07T08:09:38;13.15;;;9.00;;
43337;SDS011;28933;52.492;13.434;2022-12-07T08:12:04;15.43;;;8.65;;
43337;SDS011;28933;52.492;13.434;2022-12-07T08:14:30;15.85;;;9.70;;
43337;SDS011;28933;52.492;13.434;2022-12-07T08:16:55;14.32;;;8.52;;
43337;SDS011;28933;52.492;13.434;2022-12-07T08:19:21;11.48;;;7.72;;
43337;SDS011;28933;52.492;13.434;2022-12-07T08:21:47;11.25;;;6.80;;
43337;SDS011;28933;52.492;13.434;2022-12-07T08:24:13;13.93;;;8.15;;
43337;SDS011;28933;52.492;13.434;2022-12-07T08:26:39;12.23;;;7.60;;
43337;SDS011;28933;52.492;13.434;2022-12-07T08:29:05;11.68;;;6.95;;
43337;SDS011;28933;52.492;13.434;2022-12-07T08:31:31;10.02;;;6.97;;
43337;SDS011;28933;52.492;13.434;2022-12-07T08:33:57;13.38;;;6.35;;
43337;SDS011;28933;52.492;13.434;2022-12-07T08:36:22;10.25;;;6.65;;
43337;SDS011;28933;52.492;13.434;2022-12-07T08:38:48;10.43;;;5.93;;
43337;SDS011;28933;52.492;13.434;2022-12-07T08:41:14;10.25;;;5.60;;
43337;SDS011;28933;52.492;13.434;2022-12-07T08:43:40;9.77;;;6.28;;
43337;SDS011;28933;52.492;13.434;2022-12-07T08:48:39;6.28;;;3.75;;
43337;SDS011;28933;52.492;13.434;2022-12-07T08:51:28;6.05;;;3.97;;
43337;SDS011;28933;52.492;13.434;2022-12-07T08:53:54;7.93;;;4.20;;
43337;SDS011;28933;52.492;13.434;2022-12-07T08:56:21;7.47;;;3.78;;
43337;SDS011;28933;52.492;13.434;2022-12-07T08:58:47;5.43;;;3.97;;
43337;SDS011;28933;52.492;13.434;2022-12-07T09:01:13;6.18;;;3.00;;
43337;SDS011;28933;52.492;13.434;2022-12-07T09:03:39;4.68;;;2.78;;
43337;SDS011;28933;52.492;13.434;2022-12-07T09:06:05;5.15;;;3.10;;
43337;SDS011;28933;52.492;13.434;2022-12-07T09:08:33;6.00;;;3.10;;
43337;SDS011;28933;52.492;13.434;2022-12-07T09:11:02;5.43;;;2.67;;
43337;SDS011;28933;52.492;13.434;2022-12-07T09:13:28;4.88;;;2.80;;
43337;SDS011;28933;52.492;13.434;2022-12-07T09:15:54;4.13;;;2.22;;
43337;SDS011;28933;52.492;13.434;2022-12-07T09:18:19;3.33;;;2.33;;
43337;SDS011;28933;52.492;13.434;2022-12-07T09:20:45;6.13;;;2.67;;
43337;SDS011;28933;52.492;13.434;2022-12-07T09:23:11;3.40;;;2.10;;
43337;SDS011;28933;52.492;13.434;2022-12-07T09:25:36;3.70;;;2.03;;
43337;SDS011;28933;52.492;13.434;2022-12-07T09:28:02;3.13;;;2.20;;
43337;SDS011;28933;52.492;13.434;2022-12-07T09:30:27;3.33;;;2.20;;
43337;SDS011;28933;52.492;13.434;2022-12-07T09:32:54;5.65;;;2.67;;
43337;SDS011;28933;52.492;13.434;2022-12-07T09:35:21;3.33;;;2.20;;
43337;SDS011;28933;52.492;13.434;2022-12-07T09:37:47;5.20;;;2.35;;
43337;SDS011;28933;52.492;13.434;2022-12-07T09:40:13;4.00;;;2.63;;
43337;SDS011;28933;52.492;13.434;2022-12-07T09:42:42;4.47;;;2.85;;
43337;SDS011;28933;52.492;13.434;2022-12-07T09:45:13;3.55;;;2.35;;
43337;SDS011;28933;52.492;13.434;2022-12-07T09:47:41;3.10;;;1.90;;
43337;SDS011;28933;52.492;13.434;2022-12-07T09:50:12;4.25;;;2.88;;
43337;SDS011;28933;52.492;13.434;2022-12-07T09:52:39;3.63;;;2.35;;
43337;SDS011;28933;52.492;13.434;2022-12-07T09:55:10;3.55;;;2.50;;
43337;SDS011;28933;52.492;13.434;2022-12-07T09:57:51;5.10;;;3.00;;
43337;SDS011;28933;52.492;13.434;2022-12-07T10:00:19;4.43;;;2.38;;
43337;SDS011;28933;52.492;13.434;2022-12-07T10:02:52;3.30;;;2.30;;
43337;SDS011;28933;52.492;13.434;2022-12-07T10:05:23;3.08;;;2.33;;
43337;SDS011;28933;52.492;13.434;2022-12-07T10:07:52;3.85;;;2.40;;
43337;SDS011;28933;52.492;13.434;2022-12-07T10:10:25;6.82;;;3.33;;
43337;SDS011;28933;52.492;13.434;2022-12-07T10:13:02;3.10;;;2.28;;
43337;SDS011;28933;52.492;13.434;2022-12-07T10:18:40;3.58;;;2.28;;
43337;SDS011;28933;52.492;13.434;2022-12-07T10:26:32;3.17;;;1.95;;
43337;SDS011;28933;52.492;13.434;2022-12-07T10:29:16;5.55;;;3.28;;
43337;SDS011;28933;52.492;13.434;2022-12-07T10:31:49;3.60;;;2.47;;
43337;SDS011;28933;52.492;13.434;2022-12-07T10:34:24;4.10;;;2.25;;
43337;SDS011;28933;52.492;13.434;2022-12-07T10:37:07;4.70;;;2.35;;
43337;SDS011;28933;52.492;13.434;2022-12-07T10:39:40;3.13;;;2.75;;
43337;SDS011;28933;52.492;13.434;2022-12-07T10:42:15;4.15;;;2.50;;
43337;SDS011;28933;52.492;13.434;2022-12-07T10:53:39;5.32;;;3.30;;
43337;SDS011;28933;52.492;13.434;2022-12-07T11:04:43;4.82;;;3.55;;
43337;SDS011;28933;52.492;13.434;2022-12-07T11:10:50;3.38;;;2.90;;
43337;SDS011;28933;52.492;13.434;2022-12-07T11:25:47;5.13;;;4.05;;
43337;SDS011;28933;52.492;13.434;2022-12-07T11:28:21;5.72;;;3.60;;
43337;SDS011;28933;52.492;13.434;2022-12-07T11:30:54;4.65;;;3.13;;
43337;SDS011;28933;52.492;13.434;2022-12-07T11:42:42;5.07;;;3.38;;
43337;SDS011;28933;52.492;13.434;2022-12-07T11:44:55;6.85;;;3.60;;
43337;SDS011;28933;52.492;13.434;2022-12-07T11:47:30;5.13;;;3.45;;
43337;SDS011;28933;52.492;13.434;2022-12-07T11:55:19;5.78;;;3.35;;
43337;SDS011;28933;52.492;13.434;2022-12-07T11:57:54;7.28;;;4.07;;
43337;SDS011;28933;52.492;13.434;2022-12-07T12:00:28;8.25;;;3.78;;
43337;SDS011;28933;52.492;13.434;2022-12-07T12:03:04;6.53;;;4.25;;
43337;SDS011;28933;52.492;13.434;2022-12-07T12:05:36;6.20;;;3.80;;
43337;SDS011;28933;52.492;13.434;2022-12-07T12:08:14;6.95;;;4.20;;
43337;SDS011;28933;52.492;13.434;2022-12-07T12:21:04;8.52;;;3.50;;
43337;SDS011;28933;52.492;13.434;2022-12-07T12:23:41;6.35;;;3.22;;
43337;SDS011;28933;52.492;13.434;2022-12-07T12:26:14;4.45;;;2.88;;
43337;SDS011;28933;52.492;13.434;2022-12-07T12:28:58;5.60;;;3.50;;
43337;SDS011;28933;52.492;13.434;2022-12-07T12:33:53;5.05;;;2.85;;
43337;SDS011;28933;52.492;13.434;2022-12-07T12:50:15;5.50;;;3.22;;
43337;SDS011;28933;52.492;13.434;2022-12-07T12:52:49;5.13;;;2.80;;
43337;SDS011;28933;52.492;13.434;2022-12-07T12:55:18;4.65;;;2.63;;
43337;SDS011;28933;52.492;13.434;2022-12-07T12:57:47;5.32;;;2.72;;
43337;SDS011;28933;52.492;13.434;2022-12-07T13:00:45;8.75;;;3.03;;
43337;SDS011;28933;52.492;13.434;2022-12-07T13:03:28;4.10;;;2.42;;
43337;SDS011;28933;52.492;13.434;2022-12-07T13:08:51;10.35;;;3.17;;
43337;SDS011;28933;52.492;13.434;2022-12-07T13:11:29;6.43;;;3.03;;
43337;SDS011;28933;52.492;13.434;2022-12-07T13:17:54;5.22;;;2.70;;
43337;SDS011;28933;52.492;13.434;2022-12-07T13:20:07;6.40;;;2.90;;
43337;SDS011;28933;52.492;13.434;2022-12-07T13:27:43;5.05;;;2.42;;
43337;SDS011;28933;52.492;13.434;2022-12-07T13:30:18;6.13;;;2.50;;
43337;SDS011;28933;52.492;13.434;2022-12-07T13:32:52;6.72;;;2.97;;
43337;SDS011;28933;52.492;13.434;2022-12-07T13:35:27;10.80;;;2.70;;
43337;SDS011;28933;52.492;13.434;2022-12-07T13:38:15;5.57;;;2.20;;
43337;SDS011;28933;52.492;13.434;2022-12-07T13:41:03;4.75;;;2.33;;
43337;SDS011;28933;52.492;13.434;2022-12-07T13:43:49;6.88;;;2.90;;
43337;SDS011;28933;52.492;13.434;2022-12-07T13:46:17;6.90;;;2.67;;
43337;SDS011;28933;52.492;13.434;2022-12-07T13:48:49;6.38;;;2.97;;
43337;SDS011;28933;52.492;13.434;2022-12-07T13:51:34;5.63;;;2.80;;
43337;SDS011;28933;52.492;13.434;2022-12-07T13:54:08;5.60;;;3.08;;
43337;SDS011;28933;52.492;13.434;2022-12-07T13:56:36;8.27;;;2.67;;
43337;SDS011;28933;52.492;13.434;2022-12-07T13:59:02;8.10;;;3.22;;
43337;SDS011;28933;52.492;13.434;2022-12-07T14:01:30;7.35;;;2.80;;
43337;SDS011;28933;52.492;13.434;2022-12-07T14:04:16;8.15;;;2.70;;
43337;SDS011;28933;52.492;13.434;2022-12-07T14:07:18;4.10;;;2.10;;
43337;SDS011;28933;52.492;13.434;2022-12-07T14:09:56;6.47;;;3.00;;
43337;SDS011;28933;52.492;13.434;2022-12-07T14:12:29;4.38;;;2.80;;
43337;SDS011;28933;52.492;13.434;2022-12-07T14:14:56;4.68;;;2.60;;
43337;SDS011;28933;52.492;13.434;2022-12-07T14:17:24;4.78;;;2.28;;
43337;SDS011;28933;52.492;13.434;2022-12-07T14:20:03;4.63;;;2.33;;
43337;SDS011;28933;52.492;13.434;2022-12-07T14:27:48;5.28;;;2.38;;
43337;SDS011;28933;52.492;13.434;2022-12-07T14:30:32;6.40;;;2.50;;
43337;SDS011;28933;52.492;13.434;2022-12-07T14:33:00;5.15;;;2.50;;
43337;SDS011;28933;52.492;13.434;2022-12-07T14:35:28;6.20;;;2.67;;
43337;SDS011;28933;52.492;13.434;2022-12-07T14:37:54;8.00;;;3.15;;
43337;SDS011;28933;52.492;13.434;2022-12-07T14:40:24;4.85;;;2.33;;
43337;SDS011;28933;52.492;13.434;2022-12-07T14:42:57;4.80;;;2.35;;
43337;SDS011;28933;52.492;13.434;2022-12-07T14:45:27;4.85;;;2.60;;
43337;SDS011;28933;52.492;13.434;2022-12-07T14:47:53;8.15;;;2.72;;
43337;SDS011;28933;52.492;13.434;2022-12-07T14:50:20;6.00;;;2.70;;
43337;SDS011;28933;52.492;13.434;2022-12-07T14:52:47;7.03;;;2.50;;
43337;SDS011;28933;52.492;13.434;2022-12-07T14:55:24;7.30;;;2.85;;
43337;SDS011;28933;52.492;13.434;2022-12-07T14:57:51;4.70;;;2.38;;
43337;SDS011;28933;52.492;13.434;2022-12-07T15:00:18;8.30;;;3.22;;
43337;SDS011;28933;52.492;13.434;2022-12-07T15:02:45;8.02;;;2.83;;
43337;SDS011;28933;52.492;13.434;2022-12-07T15:05:11;7.82;;;4.03;;
43337;SDS011;28933;52.492;13.434;2022-12-07T15:07:38;6.88;;;3.22;;
43337;SDS011;28933;52.492;13.434;2022-12-07T15:10:04;12.63;;;2.83;;
43337;SDS011;28933;52.492;13.434;2022-12-07T15:12:31;6.68;;;2.55;;
43337;SDS011;28933;52.492;13.434;2022-12-07T15:14:56;7.43;;;2.67;;
43337;SDS011;28933;52.492;13.434;2022-12-07T15:17:22;6.07;;;2.60;;
43337;SDS011;28933;52.492;13.434;2022-12-07T15:19:47;4.57;;;2.17;;
43337;SDS011;28933;52.492;13.434;2022-12-07T15:22:13;8.60;;;2.38;;
43337;SDS011;28933;52.492;13.434;2022-12-07T15:24:39;6.82;;;2.60;;
43337;SDS011;28933;52.492;13.434;2022-12-07T15:27:04;5.70;;;2.50;;
43337;SDS011;28933;52.492;13.434;2022-12-07T15:29:30;6.93;;;2.50;;
43337;SDS011;28933;52.492;13.434;2022-12-07T15:31:56;4.97;;;2.50;;
43337;SDS011;28933;52.492;13.434;2022-12-07T15:34:22;8.25;;;3.08;;
43337;SDS011;28933;52.492;13.434;2022-12-07T15:36:49;7.70;;;2.38;;
43337;SDS011;28933;52.492;13.434;2022-12-07T15:39:14;5.68;;;2.55;;
43337;SDS011;28933;52.492;13.434;2022-12-07T15:41:40;8.45;;;3.20;;
43337;SDS011;28933;52.492;13.434;2022-12-07T15:44:05;8.05;;;3.17;;
43337;SDS011;28933;52.492;13.434;2022-12-07T15:46:49;6.43;;;2.55;;
43337;SDS011;28933;52.492;13.434;2022-12-07T15:49:17;5.80;;;3.00;;
43337;SDS011;28933;52.492;13.434;2022-12-07T15:51:44;10.75;;;3.33;;
43337;SDS011;28933;52.492;13.434;2022-12-07T15:54:18;6.38;;;2.65;;
43337;SDS011;28933;52.492;13.434;2022-12-07T15:56:43;5.68;;;2.70;;
43337;SDS011;28933;52.492;13.434;2022-12-07T15:59:09;9.90;;;3.28;;
43337;SDS011;28933;52.492;13.434;2022-12-07T16:01:34;9.18;;;3.00;;
43337;SDS011;28933;52.492;13.434;2022-12-07T16:04:00;6.30;;;2.60;;
43337;SDS011;28933;52.492;13.434;2022-12-07T16:06:26;8.52;;;2.80;;
43337;SDS011;28933;52.492;13.434;2022-12-07T16:08:51;7.70;;;3.33;;
43337;SDS011;28933;52.492;13.434;2022-12-07T16:11:17;5.35;;;2.83;;
43337;SDS011;28933;52.492;13.434;2022-12-07T16:13:43;6.03;;;3.03;;
43337;SDS011;28933;52.492;13.434;2022-12-07T16:16:13;6.13;;;2.33;;
43337;SDS011;28933;52.492;13.434;2022-12-07T16:18:41;5.25;;;3.13;;
43337;SDS011;28933;52.492;13.434;2022-12-07T16:21:07;6.68;;;2.78;;
43337;SDS011;28933;52.492;13.434;2022-12-07T16:23:33;6.10;;;3.63;;
43337;SDS011;28933;52.492;13.434;2022-12-07T16:26:32;7.50;;;3.28;;
43337;SDS011;28933;52.492;13.434;2022-12-07T16:28:51;9.20;;;2.05;;
43337;SDS011;28933;52.492;13.434;2022-12-07T16:31:19;8.13;;;2.67;;
43337;SDS011;28933;52.492;13.434;2022-12-07T16:33:46;9.98;;;2.90;;
43337;SDS011;28933;52.492;13.434;2022-12-07T16:36:13;7.68;;;2.88;;
43337;SDS011;28933;52.492;13.434;2022-12-07T16:38:41;4.57;;;2.60;;
43337;SDS011;28933;52.492;13.434;2022-12-07T16:41:07;5.68;;;3.25;;
43337;SDS011;28933;52.492;13.434;2022-12-07T16:43:33;7.22;;;4.20;;
43337;SDS011;28933;52.492;13.434;2022-12-07T16:45:59;7.60;;;4.30;;
43337;SDS011;28933;52.492;13.434;2022-12-07T16:48:25;6.00;;;3.50;;
43337;SDS011;28933;52.492;13.434;2022-12-07T16:50:51;14.93;;;3.88;;
43337;SDS011;28933;52.492;13.434;2022-12-07T16:53:19;6.55;;;3.58;;
43337;SDS011;28933;52.492;13.434;2022-12-07T16:55:45;6.05;;;2.85;;
43337;SDS011;28933;52.492;13.434;2022-12-07T16:58:15;6.65;;;3.45;;
43337;SDS011;28933;52.492;13.434;2022-12-07T17:00:43;5.80;;;3.40;;
43337;SDS011;28933;52.492;13.434;2022-12-07T17:03:09;6.47;;;3.17;;